sensor_id;sensor_type;location;lat;lon;timestamp;P1;durP1;ratioP1;P2;durP2;ratioP2
62707;SDS011;48769;51.624;5.886;2022-11-15T00:00:50;42.58;;;25.67;;
62707;SDS011;48769;51.624;5.886;2022-11-15T00:03:16;37.60;;;24.98;;
62707;SDS011;48769;51.624;5.886;2022-11-15T00:05:43;35.22;;;24.55;;
62707;SDS011;48769;51.624;5.886;2022-11-15T00:08:09;37.15;;;24.25;;
62707;SDS011;48769;51.624;5.886;2022-11-15T00:10:35;39.40;;;26.40;;
62707;SDS011;48769;51.624;5.886;2022-11-15T00:13:04;45.55;;;25.92;;
62707;SDS011;48769;51.624;5.886;2022-11-15T00:15:30;40.33;;;25.60;;
62707;SDS011;48769;51.624;5.886;2022-11-15T00:17:55;39.95;;;25.95;;
62707;SDS011;48769;51.624;5.886;2022-11-15T00:20:20;39.03;;;25.20;;
62707;SDS011;48769;51.624;5.886;2022-11-15T00:22:46;39.08;;;26.23;;
62707;SDS011;48769;51.624;5.886;2022-11-15T00:25:11;41.55;;;24.70;;
62707;SDS011;48769;51.624;5.886;2022-11-15T00:27:36;39.28;;;25.35;;
62707;SDS011;48769;51.624;5.886;2022-11-15T00:30:02;40.95;;;25.70;;
62707;SDS011;48769;51.624;5.886;2022-11-15T00:32:31;38.08;;;25.50;;
62707;SDS011;48769;51.624;5.886;2022-11-15T00:34:57;40.33;;;25.60;;
62707;SDS011;48769;51.624;5.886;2022-11-15T00:37:22;36.95;;;25.88;;
62707;SDS011;48769;51.624;5.886;2022-11-15T00:39:47;40.25;;;25.20;;
62707;SDS011;48769;51.624;5.886;2022-11-15T00:42:13;40.55;;;25.23;;
62707;SDS011;48769;51.624;5.886;2022-11-15T00:44:38;42.83;;;26.35;;
62707;SDS011;48769;51.624;5.886;2022-11-15T00:47:03;41.78;;;26.70;;
62707;SDS011;48769;51.624;5.886;2022-11-15T00:49:29;37.92;;;26.30;;
62707;SDS011;48769;51.624;5.886;2022-11-15T00:51:54;34.50;;;23.85;;
62707;SDS011;48769;51.624;5.886;2022-11-15T00:54:19;41.78;;;27.48;;
62707;SDS011;48769;51.624;5.886;2022-11-15T00:56:45;42.92;;;27.50;;
62707;SDS011;48769;51.624;5.886;2022-11-15T00:59:10;41.78;;;26.10;;
62707;SDS011;48769;51.624;5.886;2022-11-15T01:01:35;40.20;;;26.20;;
62707;SDS011;48769;51.624;5.886;2022-11-15T01:04:01;43.00;;;26.98;;
62707;SDS011;48769;51.624;5.886;2022-11-15T01:06:26;43.33;;;29.52;;
62707;SDS011;48769;51.624;5.886;2022-11-15T01:08:51;47.45;;;28.10;;
62707;SDS011;48769;51.624;5.886;2022-11-15T01:11:16;35.90;;;25.60;;
62707;SDS011;48769;51.624;5.886;2022-11-15T01:13:42;39.40;;;25.65;;
62707;SDS011;48769;51.624;5.886;2022-11-15T01:16:12;44.55;;;26.80;;
62707;SDS011;48769;51.624;5.886;2022-11-15T01:18:40;44.10;;;26.95;;
62707;SDS011;48769;51.624;5.886;2022-11-15T01:21:07;39.00;;;26.50;;
62707;SDS011;48769;51.624;5.886;2022-11-15T01:23:34;39.40;;;27.13;;
62707;SDS011;48769;51.624;5.886;2022-11-15T01:26:00;44.13;;;28.17;;
62707;SDS011;48769;51.624;5.886;2022-11-15T01:28:29;44.08;;;27.80;;
62707;SDS011;48769;51.624;5.886;2022-11-15T01:31:00;41.80;;;26.73;;
62707;SDS011;48769;51.624;5.886;2022-11-15T01:33:26;39.35;;;27.20;;
62707;SDS011;48769;51.624;5.886;2022-11-15T01:35:52;39.58;;;26.70;;
62707;SDS011;48769;51.624;5.886;2022-11-15T01:38:17;41.95;;;26.55;;
62707;SDS011;48769;51.624;5.886;2022-11-15T01:40:43;39.63;;;25.80;;
62707;SDS011;48769;51.624;5.886;2022-11-15T01:43:21;40.42;;;25.90;;
62707;SDS011;48769;51.624;5.886;2022-11-15T01:45:52;42.33;;;28.23;;
62707;SDS011;48769;51.624;5.886;2022-11-15T01:48:31;44.13;;;28.00;;
62707;SDS011;48769;51.624;5.886;2022-11-15T01:50:59;44.78;;;29.30;;
62707;SDS011;48769;51.624;5.886;2022-11-15T01:53:27;44.85;;;27.88;;
62707;SDS011;48769;51.624;5.886;2022-11-15T01:55:54;46.75;;;29.67;;
62707;SDS011;48769;51.624;5.886;2022-11-15T01:58:21;42.28;;;27.17;;
62707;SDS011;48769;51.624;5.886;2022-11-15T02:00:46;45.83;;;28.63;;
62707;SDS011;48769;51.624;5.886;2022-11-15T02:03:14;42.30;;;27.63;;
62707;SDS011;48769;51.624;5.886;2022-11-15T02:05:40;48.58;;;29.83;;
62707;SDS011;48769;51.624;5.886;2022-11-15T02:08:06;48.65;;;28.77;;
62707;SDS011;48769;51.624;5.886;2022-11-15T02:10:33;45.85;;;28.83;;
62707;SDS011;48769;51.624;5.886;2022-11-15T02:12:59;47.20;;;28.77;;
62707;SDS011;48769;51.624;5.886;2022-11-15T02:15:26;49.90;;;30.00;;
62707;SDS011;48769;51.624;5.886;2022-11-15T02:18:05;44.05;;;28.85;;
62707;SDS011;48769;51.624;5.886;2022-11-15T02:29:05;44.28;;;27.98;;
62707;SDS011;48769;51.624;5.886;2022-11-15T02:31:51;45.40;;;30.08;;
62707;SDS011;48769;51.624;5.886;2022-11-15T02:34:50;47.97;;;29.50;;
62707;SDS011;48769;51.624;5.886;2022-11-15T02:43:14;48.28;;;29.27;;
62707;SDS011;48769;51.624;5.886;2022-11-15T02:49:26;47.70;;;31.70;;
62707;SDS011;48769;51.624;5.886;2022-11-15T02:51:53;48.13;;;30.95;;
62707;SDS011;48769;51.624;5.886;2022-11-15T02:54:22;54.05;;;33.03;;
62707;SDS011;48769;51.624;5.886;2022-11-15T02:56:49;52.17;;;32.40;;
62707;SDS011;48769;51.624;5.886;2022-11-15T03:07:36;58.17;;;33.20;;
62707;SDS011;48769;51.624;5.886;2022-11-15T03:10:18;51.22;;;33.08;;
62707;SDS011;48769;51.624;5.886;2022-11-15T03:12:58;53.05;;;31.55;;
62707;SDS011;48769;51.624;5.886;2022-11-15T03:15:31;56.03;;;32.72;;
62707;SDS011;48769;51.624;5.886;2022-11-15T03:18:14;55.53;;;31.92;;
62707;SDS011;48769;51.624;5.886;2022-11-15T03:20:46;45.63;;;29.98;;
62707;SDS011;48769;51.624;5.886;2022-11-15T03:23:13;47.08;;;30.75;;
62707;SDS011;48769;51.624;5.886;2022-11-15T03:25:43;50.55;;;30.98;;
62707;SDS011;48769;51.624;5.886;2022-11-15T03:28:15;53.38;;;31.92;;
62707;SDS011;48769;51.624;5.886;2022-11-15T03:30:45;54.97;;;32.23;;
62707;SDS011;48769;51.624;5.886;2022-11-15T03:33:14;55.28;;;32.92;;
62707;SDS011;48769;51.624;5.886;2022-11-15T03:35:43;53.40;;;32.33;;
62707;SDS011;48769;51.624;5.886;2022-11-15T03:38:22;47.30;;;30.70;;
62707;SDS011;48769;51.624;5.886;2022-11-15T03:41:00;56.13;;;33.65;;
62707;SDS011;48769;51.624;5.886;2022-11-15T03:46:07;51.58;;;31.45;;
62707;SDS011;48769;51.624;5.886;2022-11-15T03:48:40;55.47;;;33.53;;
62707;SDS011;48769;51.624;5.886;2022-11-15T03:51:10;48.42;;;29.35;;
62707;SDS011;48769;51.624;5.886;2022-11-15T03:53:36;56.25;;;33.25;;
62707;SDS011;48769;51.624;5.886;2022-11-15T03:56:01;53.33;;;32.10;;
62707;SDS011;48769;51.624;5.886;2022-11-15T03:58:27;52.53;;;33.80;;
62707;SDS011;48769;51.624;5.886;2022-11-15T04:00:52;50.58;;;32.85;;
62707;SDS011;48769;51.624;5.886;2022-11-15T04:03:17;57.38;;;33.15;;
62707;SDS011;48769;51.624;5.886;2022-11-15T04:05:43;55.47;;;31.13;;
62707;SDS011;48769;51.624;5.886;2022-11-15T04:08:08;59.40;;;33.47;;
62707;SDS011;48769;51.624;5.886;2022-11-15T04:10:33;54.28;;;31.70;;
62707;SDS011;48769;51.624;5.886;2022-11-15T04:12:59;48.00;;;32.08;;
62707;SDS011;48769;51.624;5.886;2022-11-15T04:15:24;50.80;;;31.05;;
62707;SDS011;48769;51.624;5.886;2022-11-15T04:17:51;43.15;;;30.17;;
62707;SDS011;48769;51.624;5.886;2022-11-15T04:23:23;57.53;;;30.17;;
62707;SDS011;48769;51.624;5.886;2022-11-15T04:26:10;49.83;;;29.92;;
62707;SDS011;48769;51.624;5.886;2022-11-15T04:28:38;53.05;;;31.40;;
62707;SDS011;48769;51.624;5.886;2022-11-15T04:31:23;51.75;;;32.83;;
62707;SDS011;48769;51.624;5.886;2022-11-15T04:33:49;46.65;;;28.15;;
62707;SDS011;48769;51.624;5.886;2022-11-15T04:36:14;53.17;;;32.95;;
62707;SDS011;48769;51.624;5.886;2022-11-15T04:38:58;41.38;;;28.70;;
62707;SDS011;48769;51.624;5.886;2022-11-15T04:41:24;49.90;;;29.30;;
62707;SDS011;48769;51.624;5.886;2022-11-15T04:43:49;42.85;;;28.08;;
62707;SDS011;48769;51.624;5.886;2022-11-15T04:46:14;50.38;;;30.33;;
62707;SDS011;48769;51.624;5.886;2022-11-15T04:48:40;45.90;;;30.23;;
62707;SDS011;48769;51.624;5.886;2022-11-15T04:51:05;42.65;;;28.92;;
62707;SDS011;48769;51.624;5.886;2022-11-15T04:53:30;49.08;;;30.77;;
62707;SDS011;48769;51.624;5.886;2022-11-15T04:55:56;40.20;;;28.13;;
62707;SDS011;48769;51.624;5.886;2022-11-15T04:58:21;44.50;;;28.45;;
62707;SDS011;48769;51.624;5.886;2022-11-15T05:00:46;45.53;;;29.00;;
62707;SDS011;48769;51.624;5.886;2022-11-15T05:03:12;46.25;;;28.08;;
62707;SDS011;48769;51.624;5.886;2022-11-15T05:05:56;51.70;;;32.05;;
62707;SDS011;48769;51.624;5.886;2022-11-15T05:08:22;39.25;;;27.70;;
62707;SDS011;48769;51.624;5.886;2022-11-15T05:10:48;47.50;;;29.88;;
62707;SDS011;48769;51.624;5.886;2022-11-15T05:13:13;55.08;;;31.20;;
62707;SDS011;48769;51.624;5.886;2022-11-15T05:15:38;52.50;;;30.52;;
62707;SDS011;48769;51.624;5.886;2022-11-15T05:18:04;42.88;;;27.83;;
62707;SDS011;48769;51.624;5.886;2022-11-15T05:20:29;47.97;;;31.40;;
62707;SDS011;48769;51.624;5.886;2022-11-15T05:22:55;48.35;;;32.05;;
62707;SDS011;48769;51.624;5.886;2022-11-15T05:25:21;60.10;;;32.42;;
62707;SDS011;48769;51.624;5.886;2022-11-15T05:27:47;44.22;;;28.92;;
62707;SDS011;48769;51.624;5.886;2022-11-15T05:30:13;44.03;;;30.00;;
62707;SDS011;48769;51.624;5.886;2022-11-15T05:32:39;50.47;;;30.63;;
62707;SDS011;48769;51.624;5.886;2022-11-15T05:35:04;63.33;;;33.70;;
62707;SDS011;48769;51.624;5.886;2022-11-15T05:37:34;56.47;;;33.40;;
62707;SDS011;48769;51.624;5.886;2022-11-15T05:39:59;62.45;;;34.28;;
62707;SDS011;48769;51.624;5.886;2022-11-15T05:42:24;53.67;;;31.67;;
62707;SDS011;48769;51.624;5.886;2022-11-15T05:44:52;57.38;;;32.85;;
62707;SDS011;48769;51.624;5.886;2022-11-15T05:47:21;62.22;;;33.97;;
62707;SDS011;48769;51.624;5.886;2022-11-15T05:49:51;64.30;;;32.83;;
62707;SDS011;48769;51.624;5.886;2022-11-15T05:52:19;58.25;;;34.08;;
62707;SDS011;48769;51.624;5.886;2022-11-15T05:54:47;62.20;;;34.03;;
62707;SDS011;48769;51.624;5.886;2022-11-15T05:57:13;65.30;;;35.15;;
62707;SDS011;48769;51.624;5.886;2022-11-15T05:59:38;62.10;;;33.85;;
62707;SDS011;48769;51.624;5.886;2022-11-15T06:02:05;62.13;;;32.58;;
62707;SDS011;48769;51.624;5.886;2022-11-15T06:04:31;56.97;;;32.17;;
62707;SDS011;48769;51.624;5.886;2022-11-15T06:06:57;52.47;;;31.85;;
62707;SDS011;48769;51.624;5.886;2022-11-15T06:09:24;58.75;;;30.25;;
62707;SDS011;48769;51.624;5.886;2022-11-15T06:11:49;41.25;;;27.08;;
62707;SDS011;48769;51.624;5.886;2022-11-15T06:14:14;48.47;;;29.70;;
62707;SDS011;48769;51.624;5.886;2022-11-15T06:16:40;46.90;;;29.50;;
62707;SDS011;48769;51.624;5.886;2022-11-15T06:19:05;61.63;;;33.13;;
62707;SDS011;48769;51.624;5.886;2022-11-15T06:21:31;49.72;;;30.13;;
62707;SDS011;48769;51.624;5.886;2022-11-15T06:23:56;47.20;;;30.52;;
62707;SDS011;48769;51.624;5.886;2022-11-15T06:26:22;54.25;;;31.13;;
62707;SDS011;48769;51.624;5.886;2022-11-15T06:28:47;54.65;;;30.02;;
62707;SDS011;48769;51.624;5.886;2022-11-15T06:31:12;50.08;;;31.02;;
62707;SDS011;48769;51.624;5.886;2022-11-15T06:33:38;44.95;;;28.65;;
62707;SDS011;48769;51.624;5.886;2022-11-15T06:36:04;37.88;;;25.30;;
62707;SDS011;48769;51.624;5.886;2022-11-15T06:38:35;41.30;;;27.10;;
62707;SDS011;48769;51.624;5.886;2022-11-15T06:41:05;71.38;;;32.65;;
62707;SDS011;48769;51.624;5.886;2022-11-15T06:43:31;50.45;;;28.95;;
62707;SDS011;48769;51.624;5.886;2022-11-15T06:45:58;57.35;;;33.42;;
62707;SDS011;48769;51.624;5.886;2022-11-15T06:48:24;52.10;;;31.50;;
62707;SDS011;48769;51.624;5.886;2022-11-15T06:50:54;58.65;;;33.03;;
62707;SDS011;48769;51.624;5.886;2022-11-15T06:53:20;53.70;;;31.02;;
62707;SDS011;48769;51.624;5.886;2022-11-15T06:55:45;51.40;;;30.00;;
62707;SDS011;48769;51.624;5.886;2022-11-15T06:58:11;55.05;;;33.95;;
62707;SDS011;48769;51.624;5.886;2022-11-15T07:00:36;54.33;;;31.75;;
62707;SDS011;48769;51.624;5.886;2022-11-15T07:03:02;49.97;;;31.02;;
62707;SDS011;48769;51.624;5.886;2022-11-15T07:05:28;51.90;;;31.40;;
62707;SDS011;48769;51.624;5.886;2022-11-15T07:07:54;56.78;;;32.70;;
62707;SDS011;48769;51.624;5.886;2022-11-15T07:10:20;40.67;;;28.27;;
62707;SDS011;48769;51.624;5.886;2022-11-15T07:12:47;44.05;;;26.88;;
62707;SDS011;48769;51.624;5.886;2022-11-15T07:15:13;33.70;;;21.98;;
62707;SDS011;48769;51.624;5.886;2022-11-15T07:17:42;33.10;;;20.88;;
62707;SDS011;48769;51.624;5.886;2022-11-15T07:20:07;34.20;;;22.42;;
62707;SDS011;48769;51.624;5.886;2022-11-15T07:22:33;32.55;;;20.70;;
62707;SDS011;48769;51.624;5.886;2022-11-15T07:24:58;31.10;;;18.98;;
62707;SDS011;48769;51.624;5.886;2022-11-15T07:27:24;26.73;;;18.38;;
62707;SDS011;48769;51.624;5.886;2022-11-15T07:29:49;30.67;;;20.13;;
62707;SDS011;48769;51.624;5.886;2022-11-15T07:32:14;32.17;;;19.60;;
62707;SDS011;48769;51.624;5.886;2022-11-15T07:34:40;28.88;;;18.77;;
62707;SDS011;48769;51.624;5.886;2022-11-15T07:37:05;33.72;;;20.77;;
62707;SDS011;48769;51.624;5.886;2022-11-15T07:39:30;32.58;;;19.45;;
62707;SDS011;48769;51.624;5.886;2022-11-15T07:41:56;30.08;;;18.55;;
62707;SDS011;48769;51.624;5.886;2022-11-15T07:44:41;27.02;;;19.33;;
62707;SDS011;48769;51.624;5.886;2022-11-15T07:47:06;30.88;;;20.45;;
62707;SDS011;48769;51.624;5.886;2022-11-15T07:49:32;34.47;;;20.70;;
62707;SDS011;48769;51.624;5.886;2022-11-15T07:51:57;34.65;;;21.73;;
62707;SDS011;48769;51.624;5.886;2022-11-15T07:54:22;31.55;;;20.60;;
62707;SDS011;48769;51.624;5.886;2022-11-15T07:56:48;35.35;;;20.27;;
62707;SDS011;48769;51.624;5.886;2022-11-15T07:59:13;37.92;;;21.98;;
62707;SDS011;48769;51.624;5.886;2022-11-15T08:01:38;39.20;;;20.45;;
62707;SDS011;48769;51.624;5.886;2022-11-15T08:04:03;33.20;;;20.35;;
62707;SDS011;48769;51.624;5.886;2022-11-15T08:06:29;36.53;;;21.33;;
62707;SDS011;48769;51.624;5.886;2022-11-15T08:08:55;37.13;;;22.20;;
62707;SDS011;48769;51.624;5.886;2022-11-15T08:11:20;33.72;;;20.92;;
62707;SDS011;48769;51.624;5.886;2022-11-15T08:13:45;31.70;;;19.35;;
62707;SDS011;48769;51.624;5.886;2022-11-15T08:18:40;29.80;;;19.45;;
62707;SDS011;48769;51.624;5.886;2022-11-15T08:21:05;27.40;;;17.55;;
62707;SDS011;48769;51.624;5.886;2022-11-15T08:23:30;25.92;;;17.00;;
62707;SDS011;48769;51.624;5.886;2022-11-15T08:26:03;26.40;;;18.23;;
62707;SDS011;48769;51.624;5.886;2022-11-15T08:28:29;22.85;;;16.20;;
62707;SDS011;48769;51.624;5.886;2022-11-15T08:30:55;24.48;;;16.13;;
62707;SDS011;48769;51.624;5.886;2022-11-15T08:33:20;24.83;;;16.95;;
62707;SDS011;48769;51.624;5.886;2022-11-15T08:35:46;23.45;;;17.08;;
62707;SDS011;48769;51.624;5.886;2022-11-15T08:38:11;28.42;;;16.25;;
62707;SDS011;48769;51.624;5.886;2022-11-15T08:40:37;29.92;;;16.80;;
62707;SDS011;48769;51.624;5.886;2022-11-15T08:43:02;26.58;;;15.30;;
62707;SDS011;48769;51.624;5.886;2022-11-15T08:45:28;22.88;;;16.00;;
62707;SDS011;48769;51.624;5.886;2022-11-15T08:47:54;23.25;;;15.60;;
62707;SDS011;48769;51.624;5.886;2022-11-15T08:50:20;22.02;;;15.25;;
62707;SDS011;48769;51.624;5.886;2022-11-15T08:52:45;26.27;;;14.90;;
62707;SDS011;48769;51.624;5.886;2022-11-15T08:55:12;26.13;;;14.07;;
62707;SDS011;48769;51.624;5.886;2022-11-15T08:57:38;24.27;;;15.05;;
62707;SDS011;48769;51.624;5.886;2022-11-15T09:00:03;23.45;;;14.75;;
62707;SDS011;48769;51.624;5.886;2022-11-15T09:02:29;26.38;;;14.70;;
62707;SDS011;48769;51.624;5.886;2022-11-15T09:04:54;26.02;;;15.52;;
62707;SDS011;48769;51.624;5.886;2022-11-15T09:07:20;22.85;;;15.15;;
62707;SDS011;48769;51.624;5.886;2022-11-15T09:09:45;22.33;;;13.77;;
62707;SDS011;48769;51.624;5.886;2022-11-15T09:12:16;26.42;;;13.63;;
62707;SDS011;48769;51.624;5.886;2022-11-15T09:14:42;17.08;;;12.55;;
62707;SDS011;48769;51.624;5.886;2022-11-15T09:17:08;18.92;;;12.82;;
62707;SDS011;48769;51.624;5.886;2022-11-15T09:19:33;16.80;;;11.20;;
62707;SDS011;48769;51.624;5.886;2022-11-15T09:21:59;17.50;;;12.60;;
62707;SDS011;48769;51.624;5.886;2022-11-15T09:24:24;18.55;;;11.73;;
62707;SDS011;48769;51.624;5.886;2022-11-15T09:26:50;18.15;;;11.13;;
62707;SDS011;48769;51.624;5.886;2022-11-15T09:29:17;13.57;;;9.30;;
62707;SDS011;48769;51.624;5.886;2022-11-15T09:31:43;13.23;;;9.32;;
62707;SDS011;48769;51.624;5.886;2022-11-15T09:34:08;15.10;;;9.77;;
62707;SDS011;48769;51.624;5.886;2022-11-15T09:36:34;10.85;;;8.15;;
62707;SDS011;48769;51.624;5.886;2022-11-15T09:38:59;12.57;;;7.32;;
62707;SDS011;48769;51.624;5.886;2022-11-15T09:41:38;11.77;;;8.13;;
62707;SDS011;48769;51.624;5.886;2022-11-15T09:50:12;7.50;;;5.32;;
62707;SDS011;48769;51.624;5.886;2022-11-15T09:52:43;8.60;;;4.40;;
62707;SDS011;48769;51.624;5.886;2022-11-15T09:55:10;8.95;;;4.30;;
62707;SDS011;48769;51.624;5.886;2022-11-15T09:57:49;6.43;;;4.90;;
62707;SDS011;48769;51.624;5.886;2022-11-15T10:00:37;4.95;;;4.45;;
62707;SDS011;48769;51.624;5.886;2022-11-15T10:03:25;7.35;;;3.60;;
62707;SDS011;48769;51.624;5.886;2022-11-15T10:05:55;6.25;;;3.85;;
62707;SDS011;48769;51.624;5.886;2022-11-15T10:11:30;5.88;;;3.80;;
62707;SDS011;48769;51.624;5.886;2022-11-15T10:13:59;4.88;;;3.17;;
62707;SDS011;48769;51.624;5.886;2022-11-15T10:19:09;5.18;;;3.08;;
62707;SDS011;48769;51.624;5.886;2022-11-15T10:28:32;6.82;;;2.20;;
62707;SDS011;48769;51.624;5.886;2022-11-15T10:30:58;5.72;;;2.40;;
62707;SDS011;48769;51.624;5.886;2022-11-15T10:33:27;6.53;;;2.15;;
62707;SDS011;48769;51.624;5.886;2022-11-15T10:36:41;6.15;;;2.28;;
62707;SDS011;48769;51.624;5.886;2022-11-15T10:43:44;8.40;;;2.38;;
62707;SDS011;48769;51.624;5.886;2022-11-15T10:46:18;4.35;;;1.98;;
62707;SDS011;48769;51.624;5.886;2022-11-15T10:48:45;7.95;;;2.80;;
62707;SDS011;48769;51.624;5.886;2022-11-15T10:57:33;7.65;;;1.80;;
62707;SDS011;48769;51.624;5.886;2022-11-15T11:05:34;6.55;;;2.60;;
62707;SDS011;48769;51.624;5.886;2022-11-15T11:10:31;5.65;;;1.75;;
62707;SDS011;48769;51.624;5.886;2022-11-15T11:13:14;10.18;;;2.33;;
62707;SDS011;48769;51.624;5.886;2022-11-15T11:15:47;5.00;;;1.70;;
62707;SDS011;48769;51.624;5.886;2022-11-15T11:21:46;11.25;;;1.88;;
62707;SDS011;48769;51.624;5.886;2022-11-15T11:24:27;6.57;;;1.85;;
62707;SDS011;48769;51.624;5.886;2022-11-15T11:32:22;3.60;;;1.38;;
62707;SDS011;48769;51.624;5.886;2022-11-15T11:35:00;7.03;;;1.73;;
62707;SDS011;48769;51.624;5.886;2022-11-15T11:37:39;5.22;;;1.30;;
62707;SDS011;48769;51.624;5.886;2022-11-15T11:43:17;4.47;;;1.42;;
62707;SDS011;48769;51.624;5.886;2022-11-15T11:51:30;4.30;;;2.15;;
62707;SDS011;48769;51.624;5.886;2022-11-15T11:54:05;9.90;;;2.42;;
62707;SDS011;48769;51.624;5.886;2022-11-15T11:56:45;7.20;;;1.95;;
62707;SDS011;48769;51.624;5.886;2022-11-15T12:02:21;4.40;;;1.80;;
62707;SDS011;48769;51.624;5.886;2022-11-15T12:05:09;2.95;;;1.63;;
62707;SDS011;48769;51.624;5.886;2022-11-15T12:07:41;9.68;;;2.08;;
62707;SDS011;48769;51.624;5.886;2022-11-15T12:10:15;5.72;;;1.90;;
62707;SDS011;48769;51.624;5.886;2022-11-15T12:12:56;10.07;;;1.52;;
62707;SDS011;48769;51.624;5.886;2022-11-15T12:15:32;7.13;;;1.52;;
62707;SDS011;48769;51.624;5.886;2022-11-15T12:18:18;4.05;;;1.70;;
62707;SDS011;48769;51.624;5.886;2022-11-15T12:23:44;6.28;;;1.80;;
62707;SDS011;48769;51.624;5.886;2022-11-15T12:26:19;4.10;;;1.67;;
62707;SDS011;48769;51.624;5.886;2022-11-15T12:28:50;6.57;;;2.08;;
62707;SDS011;48769;51.624;5.886;2022-11-15T12:31:35;5.40;;;1.65;;
62707;SDS011;48769;51.624;5.886;2022-11-15T12:34:13;3.55;;;1.40;;
62707;SDS011;48769;51.624;5.886;2022-11-15T12:36:54;6.38;;;1.75;;
62707;SDS011;48769;51.624;5.886;2022-11-15T12:39:20;6.57;;;1.20;;
62707;SDS011;48769;51.624;5.886;2022-11-15T13:22:39;5.00;;;1.30;;
62707;SDS011;48769;51.624;5.886;2022-11-15T13:26:04;5.18;;;1.40;;
62707;SDS011;48769;51.624;5.886;2022-11-15T13:28:02;6.18;;;1.52;;
62707;SDS011;48769;51.624;5.886;2022-11-15T13:30:36;7.15;;;1.25;;
62707;SDS011;48769;51.624;5.886;2022-11-15T13:33:09;5.50;;;1.52;;
62707;SDS011;48769;51.624;5.886;2022-11-15T13:35:40;5.25;;;1.33;;
62707;SDS011;48769;51.624;5.886;2022-11-15T13:38:11;3.72;;;1.33;;
62707;SDS011;48769;51.624;5.886;2022-11-15T13:40:45;4.80;;;1.25;;
62707;SDS011;48769;51.624;5.886;2022-11-15T13:43:26;5.07;;;1.20;;
62707;SDS011;48769;51.624;5.886;2022-11-15T13:46:07;4.10;;;1.15;;
62707;SDS011;48769;51.624;5.886;2022-11-15T13:48:37;4.82;;;1.42;;
62707;SDS011;48769;51.624;5.886;2022-11-15T13:51:24;8.25;;;1.50;;
62707;SDS011;48769;51.624;5.886;2022-11-15T13:56:37;3.22;;;1.10;;
62707;SDS011;48769;51.624;5.886;2022-11-15T13:59:37;9.63;;;1.25;;
62707;SDS011;48769;51.624;5.886;2022-11-15T14:01:57;5.50;;;1.25;;
62707;SDS011;48769;51.624;5.886;2022-11-15T14:04:26;6.65;;;1.33;;
62707;SDS011;48769;51.624;5.886;2022-11-15T14:07:00;6.68;;;1.45;;
62707;SDS011;48769;51.624;5.886;2022-11-15T14:09:31;6.90;;;1.42;;
62707;SDS011;48769;51.624;5.886;2022-11-15T14:11:59;7.13;;;1.67;;
62707;SDS011;48769;51.624;5.886;2022-11-15T14:14:27;11.65;;;1.63;;
62707;SDS011;48769;51.624;5.886;2022-11-15T14:16:54;7.82;;;1.40;;
62707;SDS011;48769;51.624;5.886;2022-11-15T14:24:39;3.63;;;1.25;;
62707;SDS011;48769;51.624;5.886;2022-11-15T14:27:25;4.57;;;1.15;;
62707;SDS011;48769;51.624;5.886;2022-11-15T14:29:52;3.28;;;1.30;;
62707;SDS011;48769;51.624;5.886;2022-11-15T14:32:22;6.75;;;1.17;;
62707;SDS011;48769;51.624;5.886;2022-11-15T14:34:53;8.95;;;1.30;;
62707;SDS011;48769;51.624;5.886;2022-11-15T14:37:41;6.70;;;1.48;;
62707;SDS011;48769;51.624;5.886;2022-11-15T14:40:06;4.72;;;1.20;;
62707;SDS011;48769;51.624;5.886;2022-11-15T14:42:34;7.53;;;1.50;;
62707;SDS011;48769;51.624;5.886;2022-11-15T14:44:59;5.22;;;1.00;;
62707;SDS011;48769;51.624;5.886;2022-11-15T14:47:25;5.45;;;1.30;;
62707;SDS011;48769;51.624;5.886;2022-11-15T14:49:50;2.15;;;1.00;;
62707;SDS011;48769;51.624;5.886;2022-11-15T14:52:21;6.18;;;1.10;;
62707;SDS011;48769;51.624;5.886;2022-11-15T14:54:48;2.92;;;1.13;;
62707;SDS011;48769;51.624;5.886;2022-11-15T14:57:13;7.28;;;1.70;;
62707;SDS011;48769;51.624;5.886;2022-11-15T14:59:38;3.53;;;0.90;;
62707;SDS011;48769;51.624;5.886;2022-11-15T15:02:08;2.72;;;1.30;;
62707;SDS011;48769;51.624;5.886;2022-11-15T15:04:43;9.75;;;1.25;;
62707;SDS011;48769;51.624;5.886;2022-11-15T15:07:08;9.23;;;1.65;;
62707;SDS011;48769;51.624;5.886;2022-11-15T15:09:33;6.03;;;1.80;;
62707;SDS011;48769;51.624;5.886;2022-11-15T15:11:59;5.15;;;1.38;;
62707;SDS011;48769;51.624;5.886;2022-11-15T15:14:24;8.40;;;1.00;;
62707;SDS011;48769;51.624;5.886;2022-11-15T15:16:49;3.42;;;1.17;;
62707;SDS011;48769;51.624;5.886;2022-11-15T15:19:15;8.13;;;1.45;;
62707;SDS011;48769;51.624;5.886;2022-11-15T15:21:40;5.55;;;1.63;;
62707;SDS011;48769;51.624;5.886;2022-11-15T15:24:05;7.32;;;1.33;;
62707;SDS011;48769;51.624;5.886;2022-11-15T15:26:31;5.07;;;1.00;;
62707;SDS011;48769;51.624;5.886;2022-11-15T15:29:04;4.53;;;1.08;;
62707;SDS011;48769;51.624;5.886;2022-11-15T15:31:29;7.32;;;1.58;;
62707;SDS011;48769;51.624;5.886;2022-11-15T15:33:54;5.80;;;1.27;;
62707;SDS011;48769;51.624;5.886;2022-11-15T15:36:20;5.93;;;1.65;;
62707;SDS011;48769;51.624;5.886;2022-11-15T15:38:45;6.75;;;1.27;;
62707;SDS011;48769;51.624;5.886;2022-11-15T15:41:12;4.45;;;1.13;;
62707;SDS011;48769;51.624;5.886;2022-11-15T15:43:38;3.83;;;1.30;;
62707;SDS011;48769;51.624;5.886;2022-11-15T15:46:04;4.53;;;1.30;;
62707;SDS011;48769;51.624;5.886;2022-11-15T15:48:32;7.75;;;1.40;;
62707;SDS011;48769;51.624;5.886;2022-11-15T15:50:58;6.28;;;1.23;;
62707;SDS011;48769;51.624;5.886;2022-11-15T15:53:23;7.15;;;1.55;;
62707;SDS011;48769;51.624;5.886;2022-11-15T15:55:49;9.65;;;1.60;;
62707;SDS011;48769;51.624;5.886;2022-11-15T15:58:14;5.97;;;1.95;;
62707;SDS011;48769;51.624;5.886;2022-11-15T16:00:39;8.57;;;2.53;;
62707;SDS011;48769;51.624;5.886;2022-11-15T16:03:05;8.45;;;1.80;;
62707;SDS011;48769;51.624;5.886;2022-11-15T16:05:31;4.93;;;1.70;;
62707;SDS011;48769;51.624;5.886;2022-11-15T16:07:56;5.53;;;1.75;;
62707;SDS011;48769;51.624;5.886;2022-11-15T16:12:52;5.80;;;1.83;;
62707;SDS011;48769;51.624;5.886;2022-11-15T16:15:19;6.22;;;1.85;;
62707;SDS011;48769;51.624;5.886;2022-11-15T16:17:53;6.43;;;2.25;;
62707;SDS011;48769;51.624;5.886;2022-11-15T16:20:22;4.70;;;2.20;;
62707;SDS011;48769;51.624;5.886;2022-11-15T16:22:59;8.00;;;2.10;;
62707;SDS011;48769;51.624;5.886;2022-11-15T16:25:25;6.43;;;2.40;;
62707;SDS011;48769;51.624;5.886;2022-11-15T16:27:50;5.55;;;2.38;;
62707;SDS011;48769;51.624;5.886;2022-11-15T16:30:17;7.50;;;2.13;;
62707;SDS011;48769;51.624;5.886;2022-11-15T16:32:45;16.00;;;2.40;;
62707;SDS011;48769;51.624;5.886;2022-11-15T16:35:11;10.15;;;3.33;;
62707;SDS011;48769;51.624;5.886;2022-11-15T16:37:38;7.25;;;2.50;;
62707;SDS011;48769;51.624;5.886;2022-11-15T16:40:10;8.75;;;2.75;;
62707;SDS011;48769;51.624;5.886;2022-11-15T16:42:44;5.88;;;2.63;;
62707;SDS011;48769;51.624;5.886;2022-11-15T16:45:11;6.00;;;2.40;;
62707;SDS011;48769;51.624;5.886;2022-11-15T16:47:38;7.40;;;3.10;;
62707;SDS011;48769;51.624;5.886;2022-11-15T16:50:03;8.57;;;3.05;;
62707;SDS011;48769;51.624;5.886;2022-11-15T16:52:29;7.75;;;3.47;;
62707;SDS011;48769;51.624;5.886;2022-11-15T16:54:54;9.68;;;4.00;;
62707;SDS011;48769;51.624;5.886;2022-11-15T16:57:19;7.10;;;3.35;;
62707;SDS011;48769;51.624;5.886;2022-11-15T16:59:45;6.90;;;3.28;;
62707;SDS011;48769;51.624;5.886;2022-11-15T17:02:11;7.45;;;3.40;;
62707;SDS011;48769;51.624;5.886;2022-11-15T17:04:37;9.40;;;3.55;;
62707;SDS011;48769;51.624;5.886;2022-11-15T17:07:02;12.90;;;4.80;;